Corsicana, Texas
Current Conditions -  °F | °C
As of 5:53 AM on Sunday 21 Dec 2014 (Local Time) from KCRS Reporting Station
Haze Haze  
Wind Chill: 44°   Ceiling: 300
Heat Index: 46°   Visibility: 3mi
Dew Point: 44°   Wind: 5mph
Humidity: 93%   Direction: 110°ESE
Pressure: 30.14"   Gusts: NA
Location:  32.09°N, 96.46°W
Report Text: KCRS 211153Z AUTO 11004KT 3SM BR BKN003 BKN014 OVC023 08/07 A3014 RMK AO2 SLP205 T00780067 10094 20078 55007
Loading
Personal Weather Stations






























Interactive Weather Map New forecast layout! Learn more

10-Day Weather Forecast

Advertisements
Track Severe Weather on mobile